createdAt,value
2019-04-28T00:02:02.194Z,79.01
2019-04-28T00:04:31.921Z,79.06
2019-04-28T00:07:01.880Z,79.38
2019-04-28T00:09:31.481Z,79.72
2019-04-28T00:12:01.742Z,80.41
2019-04-28T00:14:31.800Z,80.70
2019-04-28T00:17:01.556Z,80.35
2019-04-28T00:19:31.184Z,80.20
2019-04-28T00:22:05.179Z,80.12
2019-04-28T00:24:48.480Z,79.90
2019-04-28T00:27:21.657Z,80.05
2019-04-28T00:29:51.989Z,80.50
2019-04-28T00:32:21.738Z,80.85
2019-04-28T00:34:51.543Z,81.41
2019-04-28T00:37:25.750Z,81.37
2019-04-28T00:39:55.383Z,80.90
2019-04-28T00:42:25.031Z,81.09
2019-04-28T00:44:54.698Z,80.89
2019-04-28T00:47:24.931Z,81.00
2019-04-28T00:49:54.562Z,81.20
2019-04-28T00:52:24.223Z,81.16
2019-04-28T00:54:53.852Z,81.05
2019-04-28T00:57:23.578Z,81.86
2019-04-28T00:59:57.990Z,82.52
2019-04-28T01:02:31.005Z,81.91
2019-04-28T01:05:01.635Z,82.15
2019-04-28T01:07:33.092Z,82.21
2019-04-28T01:10:02.954Z,81.94
2019-04-28T01:12:32.610Z,81.76
2019-04-28T01:15:04.796Z,81.45
2019-04-28T01:17:35.339Z,81.29
2019-04-28T01:20:14.522Z,80.27
2019-04-28T01:22:45.613Z,80.68
2019-04-28T01:25:16.694Z,80.91
2019-04-28T01:27:50.857Z,81.15
2019-04-28T01:30:40.500Z,80.76
2019-04-28T01:33:12.402Z,81.09
2019-04-28T01:35:42.036Z,81.60
2019-04-28T01:38:12.302Z,81.28
2019-04-28T01:40:43.449Z,81.14
2019-04-28T01:43:13.187Z,80.93
2019-04-28T01:45:42.848Z,80.36
2019-04-28T01:48:13.014Z,80.47
2019-04-28T01:50:42.671Z,80.62
2019-04-28T01:53:12.302Z,80.64
2019-04-28T01:55:42.361Z,80.43
2019-04-28T01:58:11.996Z,80.87
2019-04-28T02:00:41.665Z,81.10
2019-04-28T02:03:11.292Z,81.14
2019-04-28T02:05:40.960Z,81.28
2019-04-28T02:08:10.597Z,80.92
2019-04-28T02:10:40.315Z,80.73
2019-04-28T02:13:11.430Z,80.52
2019-04-28T02:15:41.110Z,80.37
2019-04-28T02:18:10.741Z,80.36
2019-04-28T02:20:42.039Z,80.07
2019-04-28T02:23:13.312Z,80.50
2019-04-28T02:25:42.977Z,80.64
2019-04-28T02:28:12.613Z,80.32
2019-04-28T02:30:49.367Z,80.25
2019-04-28T02:33:13.626Z,80.55
2019-04-28T02:35:43.317Z,80.71
2019-04-28T02:38:12.909Z,80.97
2019-04-28T02:40:42.570Z,80.68
2019-04-28T02:43:12.203Z,80.63
2019-04-28T02:45:42.206Z,80.52
2019-04-28T02:48:13.479Z,79.94
2019-04-28T02:50:44.782Z,79.83
2019-04-28T02:53:21.754Z,79.77
2019-04-28T02:55:51.586Z,79.32
2019-04-28T02:58:22.689Z,79.13
2019-04-28T03:01:06.763Z,78.74
2019-04-28T03:03:23.711Z,78.55
2019-04-28T03:05:53.542Z,78.51
2019-04-28T03:08:23.202Z,78.78
2019-04-28T03:10:53.040Z,78.60
2019-04-28T03:13:23.010Z,78.61
2019-04-28T03:15:52.654Z,78.63
2019-04-28T03:18:22.306Z,78.90
2019-04-28T03:20:52.100Z,78.69
2019-04-28T03:23:21.946Z,78.70
2019-04-28T03:26:01.361Z,78.75
2019-04-28T03:28:35.316Z,78.59
2019-04-28T03:31:59.033Z,78.92
2019-04-28T03:33:56.030Z,78.74
2019-04-28T03:36:25.823Z,78.98
2019-04-28T03:38:55.482Z,79.26
2019-04-28T03:41:25.119Z,79.27
2019-04-28T03:43:54.768Z,79.10
2019-04-28T03:46:26.035Z,79.20
2019-04-28T03:48:55.690Z,79.15
2019-04-28T03:51:25.320Z,79.19
2019-04-28T03:53:54.979Z,78.98
2019-04-28T03:56:24.613Z,79.06
2019-04-28T03:58:54.282Z,79.20
2019-04-28T04:01:23.905Z,79.35
2019-04-28T04:03:53.557Z,79.27
2019-04-28T04:06:23.181Z,79.27
2019-04-28T04:08:53.025Z,79.54
2019-04-28T04:11:31.161Z,79.72
2019-04-28T04:14:11.286Z,79.67
2019-04-28T04:16:41.593Z,79.72
2019-04-28T04:19:12.887Z,80.02
2019-04-28T04:21:42.514Z,80.08
2019-04-28T04:24:12.164Z,80.28
2019-04-28T04:26:41.784Z,80.33
2019-04-28T04:29:11.805Z,80.53
2019-04-28T04:31:41.558Z,80.54
2019-04-28T04:34:11.165Z,80.80
2019-04-28T04:36:41.735Z,80.76
2019-04-28T04:39:11.624Z,80.97
2019-04-28T04:41:43.662Z,80.94
2019-04-28T04:44:12.601Z,81.15
2019-04-28T04:46:42.259Z,81.19
2019-04-28T04:49:11.914Z,81.03
2019-04-28T04:51:43.925Z,81.02
2019-04-28T04:54:14.156Z,80.96
2019-04-28T04:56:43.812Z,81.17
2019-04-28T04:59:13.441Z,80.95
2019-04-28T05:01:56.827Z,80.66
2019-04-28T05:04:36.771Z,80.51
2019-04-28T05:07:06.496Z,80.48
2019-04-28T05:09:36.122Z,80.54
2019-04-28T05:12:05.772Z,80.49
2019-04-28T05:14:35.395Z,80.18
2019-04-28T05:17:05.116Z,80.18
2019-04-28T05:19:34.737Z,80.60
2019-04-28T05:22:04.826Z,80.39
2019-04-28T05:24:36.085Z,80.41
2019-04-28T05:27:05.740Z,80.56
2019-04-28T05:29:35.369Z,80.44
2019-04-28T05:32:05.020Z,80.13
2019-04-28T05:34:34.652Z,80.05
2019-04-28T05:37:04.364Z,79.90
2019-04-28T05:39:33.992Z,79.75
2019-04-28T05:42:03.644Z,79.91
2019-04-28T05:44:33.268Z,79.95
2019-04-28T05:47:02.926Z,79.99
2019-04-28T05:49:34.190Z,80.02
2019-04-28T05:52:11.930Z,79.91
2019-04-28T05:55:01.285Z,79.66
2019-04-28T05:57:35.497Z,79.75
2019-04-28T06:00:16.998Z,79.57
2019-04-28T06:02:56.478Z,79.94
2019-04-28T06:05:22.345Z,79.66
2019-04-28T06:08:11.644Z,79.47
2019-04-28T06:10:41.268Z,79.55
2019-04-28T06:13:10.920Z,79.42
2019-04-28T06:15:40.544Z,79.50
2019-04-28T06:18:10.520Z,78.93
2019-04-28T06:20:40.741Z,78.86
2019-04-28T06:23:10.444Z,77.92
2019-04-28T06:25:40.055Z,77.74
2019-04-28T06:28:09.772Z,76.92
2019-04-28T06:30:39.395Z,76.73
2019-04-28T06:33:09.054Z,75.67
2019-04-28T06:35:38.696Z,75.87
2019-04-28T06:38:08.413Z,75.39
2019-04-28T06:40:38.041Z,75.14
2019-04-28T06:43:07.701Z,74.93
2019-04-28T06:45:37.328Z,74.84
2019-04-28T06:48:06.981Z,74.29
2019-04-28T06:50:36.607Z,74.16
2019-04-28T06:53:06.256Z,73.72
2019-04-28T06:55:35.881Z,73.70
2019-04-28T06:58:05.550Z,73.80
2019-04-28T07:00:35.173Z,73.35
2019-04-28T07:03:04.820Z,73.14
2019-04-28T07:05:34.468Z,73.04
2019-04-28T07:08:04.129Z,73.30
2019-04-28T07:10:33.775Z,73.07
2019-04-28T07:13:03.415Z,73.55
2019-04-28T07:15:33.135Z,73.41
2019-04-28T07:18:02.772Z,73.42
2019-04-28T07:20:36.727Z,73.74
2019-04-28T07:23:06.519Z,73.21
2019-04-28T07:25:36.174Z,72.69
2019-04-28T07:28:05.801Z,72.56
2019-04-28T07:30:37.296Z,71.94
2019-04-28T07:33:06.916Z,72.35
2019-04-28T07:35:36.593Z,71.64
2019-04-28T07:38:06.188Z,71.80
2019-04-28T07:40:35.837Z,71.81
2019-04-28T07:43:05.464Z,71.75
2019-04-28T07:45:35.117Z,71.84
2019-04-28T07:48:04.744Z,71.91
2019-04-28T07:50:34.473Z,71.98
2019-04-28T07:53:14.780Z,71.41
2019-04-28T07:55:44.433Z,71.19
2019-04-28T07:58:14.049Z,71.42
2019-04-28T08:00:43.781Z,71.70
2019-04-28T08:03:13.405Z,71.03
2019-04-28T08:05:43.123Z,71.31
2019-04-28T08:08:12.764Z,71.61
2019-04-28T08:10:42.620Z,71.92
2019-04-28T08:13:12.246Z,72.23
2019-04-28T08:15:41.907Z,72.16
2019-04-28T08:18:11.628Z,72.47
2019-04-28T08:20:41.283Z,72.14
2019-04-28T08:23:10.908Z,72.10
2019-04-28T08:25:40.563Z,72.40
2019-04-28T08:28:10.240Z,71.08
2019-04-28T08:30:39.843Z,70.50
2019-04-28T08:33:27.144Z,69.82
2019-04-28T08:35:56.800Z,69.93
2019-04-28T08:38:26.433Z,68.55
2019-04-28T08:40:56.092Z,67.72
2019-04-28T08:43:26.267Z,67.85
2019-04-28T08:45:55.925Z,68.66
2019-04-28T08:48:25.569Z,68.26
2019-04-28T08:50:55.219Z,69.33
2019-04-28T08:53:24.852Z,70.00
2019-04-28T08:55:54.504Z,70.16
2019-04-28T08:58:24.132Z,70.50
2019-04-28T09:00:53.947Z,69.55
2019-04-28T09:03:23.574Z,69.42
2019-04-28T09:05:53.221Z,69.21
2019-04-28T09:08:22.856Z,68.73
2019-04-28T09:10:52.517Z,68.35
2019-04-28T09:13:22.136Z,68.52
2019-04-28T09:15:51.794Z,68.21
2019-04-28T09:18:21.443Z,68.40
2019-04-28T09:20:51.088Z,68.57
2019-04-28T09:23:20.713Z,68.62
2019-04-28T09:25:50.714Z,67.99
2019-04-28T09:28:20.338Z,67.61
2019-04-28T09:30:50.126Z,67.21
2019-04-28T09:33:19.788Z,66.94
2019-04-28T09:35:49.435Z,66.96
2019-04-28T09:38:19.342Z,66.64
2019-04-28T09:40:48.967Z,66.96
2019-04-28T09:43:26.411Z,66.66
2019-04-28T09:45:57.673Z,66.50
2019-04-28T09:48:27.328Z,65.93
2019-04-28T09:50:56.947Z,66.23
2019-04-28T09:53:26.597Z,64.88
2019-04-28T09:55:56.225Z,64.63
2019-04-28T09:58:25.881Z,64.47
2019-04-28T10:00:55.508Z,64.64
2019-04-28T10:03:25.443Z,63.47
2019-04-28T10:05:55.077Z,63.60
2019-04-28T10:08:24.733Z,63.38
2019-04-28T10:10:54.355Z,63.11
2019-04-28T10:13:24.017Z,63.44
2019-04-28T10:15:53.707Z,62.63
2019-04-28T10:18:23.360Z,63.77
2019-04-28T10:20:52.985Z,63.74
2019-04-28T10:23:22.639Z,63.64
2019-04-28T10:25:52.360Z,63.59
2019-04-28T10:28:22.011Z,64.02
2019-04-28T10:30:51.636Z,63.33
2019-04-28T10:33:21.468Z,63.87
2019-04-28T10:35:51.092Z,63.70
2019-04-28T10:38:20.741Z,63.98
2019-04-28T10:41:03.668Z,63.57
2019-04-28T10:43:33.317Z,63.18
2019-04-28T10:46:02.946Z,63.30
2019-04-28T10:48:32.593Z,62.70
2019-04-28T10:51:02.220Z,63.23
2019-04-28T10:53:31.870Z,62.55
2019-04-28T10:56:01.492Z,62.43
2019-04-28T10:58:31.146Z,62.38
2019-04-28T11:01:00.763Z,62.32
2019-04-28T11:03:30.413Z,62.06
2019-04-28T11:06:00.046Z,61.90
2019-04-28T11:08:47.978Z,61.34
2019-04-28T11:11:19.346Z,60.94
2019-04-28T11:13:49.334Z,60.49
2019-04-28T11:16:20.601Z,60.17
2019-04-28T11:18:50.667Z,60.02
2019-04-28T11:21:20.285Z,59.89
2019-04-28T11:23:49.944Z,60.46
2019-04-28T11:26:20.166Z,60.69
2019-04-28T11:28:49.826Z,60.44
2019-04-28T11:31:19.453Z,60.53
2019-04-28T11:33:56.819Z,59.62
2019-04-28T11:36:28.127Z,59.73
2019-04-28T11:38:57.768Z,60.52
2019-04-28T11:41:27.420Z,60.47
2019-04-28T11:43:57.041Z,60.85
2019-04-28T11:46:27.364Z,60.68
2019-04-28T11:48:56.984Z,61.33
2019-04-28T11:51:26.636Z,61.05
2019-04-28T11:53:56.252Z,60.14
2019-04-28T11:56:25.895Z,58.92
2019-04-28T11:58:55.519Z,59.66
2019-04-28T12:01:25.405Z,59.59
2019-04-28T12:03:56.661Z,59.86
2019-04-28T12:06:26.304Z,59.86
2019-04-28T12:08:57.581Z,59.80
2019-04-28T12:11:31.537Z,59.45
2019-04-28T12:14:08.776Z,59.98
2019-04-28T12:16:42.775Z,60.01
2019-04-28T12:19:14.117Z,60.00
2019-04-28T12:21:44.291Z,60.15
2019-04-28T12:24:13.925Z,60.14
2019-04-28T12:26:43.618Z,61.16
2019-04-28T12:29:13.241Z,60.89
2019-04-28T12:31:42.905Z,60.95
2019-04-28T12:34:12.529Z,60.89
2019-04-28T12:36:42.193Z,61.10
2019-04-28T12:39:11.823Z,61.22
2019-04-28T12:41:41.485Z,61.11
2019-04-28T12:44:11.152Z,60.78
2019-04-28T12:46:40.765Z,60.93
2019-04-28T12:49:12.033Z,61.15
2019-04-28T12:51:41.681Z,60.71
2019-04-28T12:54:12.977Z,60.61
2019-04-28T12:56:42.624Z,60.29
2019-04-28T12:59:16.349Z,59.70
2019-04-28T13:01:47.967Z,59.94
2019-04-28T13:04:27.950Z,59.40
2019-04-28T13:07:02.219Z,59.38
2019-04-28T13:09:31.945Z,59.70
2019-04-28T13:12:01.570Z,59.52
2019-04-28T13:14:31.447Z,59.29
2019-04-28T13:17:01.073Z,59.55
2019-04-28T13:19:30.875Z,58.84
2019-04-28T13:22:00.837Z,58.75
2019-04-28T13:24:30.589Z,59.12
2019-04-28T13:27:00.241Z,58.30
2019-04-28T13:29:29.907Z,58.82
2019-04-28T13:31:59.525Z,58.62
2019-04-28T13:34:30.817Z,58.45
2019-04-28T13:37:00.460Z,57.78
2019-04-28T13:39:31.841Z,58.26
2019-04-28T13:42:01.478Z,58.42
2019-04-28T13:44:48.660Z,58.75
2019-04-28T13:47:18.738Z,58.76
2019-04-28T13:49:50.735Z,59.22
2019-04-28T13:52:20.739Z,59.45
2019-04-28T13:54:52.026Z,59.93
2019-04-28T13:57:21.756Z,59.55
2019-04-28T13:59:53.037Z,60.50
2019-04-28T14:02:27.240Z,61.04
2019-04-28T14:04:58.533Z,61.06
2019-04-28T14:07:28.161Z,61.18
2019-04-28T14:09:57.818Z,61.21
2019-04-28T14:12:27.449Z,61.03
2019-04-28T14:14:57.133Z,61.65
2019-04-28T14:17:26.730Z,60.39
2019-04-28T14:19:56.414Z,61.47
2019-04-28T14:22:26.019Z,60.93
2019-04-28T14:24:55.736Z,61.05
2019-04-28T14:27:25.397Z,60.90
2019-04-28T14:29:55.043Z,61.59
2019-04-28T14:32:24.699Z,61.48
2019-04-28T14:34:55.330Z,61.36
2019-04-28T14:37:25.032Z,61.64
2019-04-28T14:39:54.674Z,61.94
2019-04-28T14:42:24.342Z,62.20
2019-04-28T14:44:53.955Z,62.56
2019-04-28T14:47:23.641Z,62.23
2019-04-28T14:49:53.223Z,64.24
2019-04-28T14:52:22.958Z,62.99
2019-04-28T14:54:52.921Z,63.77
2019-04-28T14:57:22.574Z,64.37
2019-04-28T14:59:52.215Z,65.48
2019-04-28T15:02:23.604Z,66.49
2019-04-28T15:05:00.774Z,67.93
2019-04-28T15:07:47.944Z,67.63
2019-04-28T15:10:21.986Z,68.12
2019-04-28T15:12:51.638Z,69.06
2019-04-28T15:15:21.355Z,69.15
2019-04-28T15:17:50.999Z,69.29
2019-04-28T15:20:20.625Z,71.27
2019-04-28T15:22:50.746Z,71.20
2019-04-28T15:25:20.377Z,71.62
2019-04-28T15:27:50.035Z,72.21
2019-04-28T15:30:20.124Z,73.46
2019-04-28T15:32:49.785Z,71.89
2019-04-28T15:35:20.419Z,72.90
2019-04-28T15:37:50.073Z,74.14
2019-04-28T15:40:20.121Z,73.83
2019-04-28T15:42:49.769Z,74.86
2019-04-28T15:45:19.400Z,74.08
2019-04-28T15:47:49.372Z,74.13
2019-04-28T15:50:19.070Z,75.42
2019-04-28T15:52:48.717Z,76.56
2019-04-28T15:55:23.434Z,75.21
2019-04-28T15:57:53.075Z,77.23
2019-04-28T16:00:22.773Z,76.96
2019-04-28T16:02:52.434Z,78.13
2019-04-28T16:05:22.047Z,78.44
2019-04-28T16:07:51.699Z,79.54
2019-04-28T16:10:21.514Z,80.83
2019-04-28T16:12:51.363Z,81.63
2019-04-28T16:15:20.989Z,81.12
2019-04-28T16:17:50.721Z,82.51
2019-04-28T16:20:20.410Z,83.50
2019-04-28T16:22:50.145Z,84.42
2019-04-28T16:25:19.771Z,84.73
2019-04-28T16:27:49.431Z,84.86
2019-04-28T16:30:19.180Z,84.66
2019-04-28T16:32:49.308Z,84.88
2019-04-28T16:35:19.235Z,85.61
2019-04-28T16:37:48.864Z,85.67
2019-04-28T16:40:18.521Z,85.68
2019-04-28T16:42:48.726Z,86.27
2019-04-28T16:45:18.875Z,86.26
2019-04-28T16:47:48.731Z,86.08
2019-04-28T16:50:18.454Z,86.65
2019-04-28T16:52:48.726Z,86.69
2019-04-28T16:55:28.653Z,86.19
2019-04-28T16:58:05.876Z,86.91
2019-04-28T17:00:53.354Z,87.59
2019-04-28T17:03:23.055Z,87.78
2019-04-28T17:05:52.976Z,87.68
2019-04-28T17:08:22.610Z,87.84
2019-04-28T17:10:52.266Z,88.57
2019-04-28T17:13:21.894Z,89.11
2019-04-28T17:15:51.558Z,89.07
2019-04-28T17:18:21.538Z,89.41
2019-04-28T17:20:54.268Z,88.42
2019-04-28T17:23:22.499Z,88.62
2019-04-28T17:25:52.162Z,88.32
2019-04-28T17:28:21.783Z,88.11
2019-04-28T17:30:51.433Z,88.44
2019-04-28T17:33:21.052Z,88.56
2019-04-28T17:35:50.891Z,88.90
2019-04-28T17:38:20.514Z,89.18
2019-04-28T17:40:50.384Z,89.12
2019-04-28T17:43:20.081Z,89.33
2019-04-28T17:45:50.310Z,89.33
2019-04-28T17:48:21.576Z,89.74
2019-04-28T17:50:51.221Z,89.92
2019-04-28T17:53:20.842Z,90.26
2019-04-28T17:55:50.897Z,89.87
2019-04-28T17:58:20.528Z,89.98
2019-04-28T18:00:54.752Z,89.77
2019-04-28T18:03:28.812Z,89.74
2019-04-28T18:06:18.051Z,90.01
2019-04-28T18:08:48.084Z,90.46
2019-04-28T18:11:18.065Z,90.00
2019-04-28T18:13:48.072Z,89.74
2019-04-28T18:16:19.369Z,90.45
2019-04-28T18:18:57.056Z,90.14
2019-04-28T18:21:26.713Z,90.55
2019-04-28T18:23:56.367Z,90.95
2019-04-28T18:26:25.993Z,90.92
2019-04-28T18:28:55.646Z,91.19
2019-04-28T18:31:26.912Z,91.42
2019-04-28T18:34:14.070Z,91.84
2019-04-28T18:36:45.339Z,91.60
2019-04-28T18:39:22.378Z,91.55
2019-04-28T18:41:53.641Z,91.35
2019-04-28T18:44:23.300Z,91.57
2019-04-28T18:46:52.925Z,91.71
2019-04-28T18:49:22.573Z,91.47
2019-04-28T18:51:52.197Z,91.12
2019-04-28T18:54:21.853Z,90.96
2019-04-28T18:56:51.759Z,91.54
2019-04-28T18:59:24.209Z,91.08
2019-04-28T19:02:03.317Z,91.11
2019-04-28T19:04:32.975Z,90.28
2019-04-28T19:07:05.418Z,90.60
2019-04-28T19:09:48.179Z,90.82
2019-04-28T19:12:24.853Z,90.50
2019-04-28T19:14:56.245Z,90.28
2019-04-28T19:17:33.544Z,90.33
2019-04-28T19:20:03.446Z,90.39
2019-04-28T19:22:34.730Z,90.85
2019-04-28T19:25:05.742Z,90.82
2019-04-28T19:27:35.370Z,90.99
2019-04-28T19:30:05.558Z,90.77
2019-04-28T19:32:35.182Z,91.25
2019-04-28T19:35:05.073Z,90.74
2019-04-28T19:37:34.700Z,90.78
2019-04-28T19:40:05.997Z,90.78
2019-04-28T19:42:35.616Z,91.43
2019-04-28T19:45:07.876Z,91.50
2019-04-28T19:47:38.506Z,91.26
2019-04-28T19:50:08.391Z,91.25
2019-04-28T19:52:40.998Z,91.40
2019-04-28T19:55:17.125Z,91.14
2019-04-28T19:57:51.170Z,91.31
2019-04-28T20:00:23.034Z,91.33
2019-04-28T20:02:52.820Z,91.65
2019-04-28T20:05:22.440Z,91.35
2019-04-28T20:07:52.099Z,91.39
2019-04-28T20:10:22.005Z,91.84
2019-04-28T20:12:51.658Z,91.37
2019-04-28T20:15:21.283Z,91.69
2019-04-28T20:17:51.180Z,91.89
2019-04-28T20:20:20.816Z,91.70
2019-04-28T20:22:50.574Z,91.72
2019-04-28T20:25:20.197Z,91.60
2019-04-28T20:27:49.927Z,91.78
2019-04-28T20:30:19.570Z,91.75
2019-04-28T20:32:49.254Z,92.04
2019-04-28T20:35:20.511Z,92.08
2019-04-28T20:37:54.450Z,91.80
2019-04-28T20:40:34.774Z,91.84
2019-04-28T20:43:09.120Z,91.54
2019-04-28T20:45:38.755Z,91.76
2019-04-28T20:48:08.409Z,91.72
2019-04-28T20:50:38.030Z,91.76
2019-04-28T20:53:07.683Z,92.10
2019-04-28T20:55:37.309Z,92.19
2019-04-28T20:58:07.057Z,92.53
2019-04-28T21:00:36.685Z,92.53
2019-04-28T21:03:06.336Z,92.28
2019-04-28T21:05:35.956Z,91.99
2019-04-28T21:08:05.684Z,92.40
2019-04-28T21:10:38.305Z,92.36
2019-04-28T21:13:06.743Z,92.42
2019-04-28T21:15:36.368Z,92.15
2019-04-28T21:18:06.029Z,92.72
2019-04-28T21:20:35.652Z,92.68
2019-04-28T21:23:05.301Z,92.79
2019-04-28T21:25:34.927Z,92.65
2019-04-28T21:28:04.815Z,92.84
2019-04-28T21:30:34.443Z,92.51
2019-04-28T21:33:04.094Z,92.74
2019-04-28T21:35:33.748Z,92.63
2019-04-28T21:38:03.378Z,92.67
2019-04-28T21:40:33.204Z,92.86
2019-04-28T21:43:04.461Z,92.45
2019-04-28T21:45:44.664Z,92.82
2019-04-28T21:48:15.923Z,92.54
2019-04-28T21:50:45.577Z,92.99
2019-04-28T21:53:15.200Z,92.57
2019-04-28T21:55:44.860Z,92.71
2019-04-28T21:58:14.491Z,92.52
2019-04-28T22:00:56.073Z,92.61
2019-04-28T22:03:25.805Z,92.58
2019-04-28T22:05:55.464Z,92.83
2019-04-28T22:08:25.090Z,92.46
2019-04-28T22:10:54.742Z,92.95
2019-04-28T22:13:24.362Z,92.74
2019-04-28T22:15:54.024Z,92.57
2019-04-28T22:18:24.112Z,92.41
2019-04-28T22:20:53.981Z,92.33
2019-04-28T22:23:25.240Z,92.39
2019-04-28T22:25:54.896Z,92.75
2019-04-28T22:28:24.517Z,92.68
2019-04-28T22:30:54.180Z,92.89
2019-04-28T22:33:23.803Z,92.75
2019-04-28T22:35:53.457Z,92.81
2019-04-28T22:38:23.083Z,92.86
2019-04-28T22:40:52.772Z,92.61
2019-04-28T22:43:22.588Z,92.73
2019-04-28T22:45:52.233Z,92.56
2019-04-28T22:48:23.487Z,92.57
2019-04-28T22:50:53.425Z,92.72
2019-04-28T22:53:24.690Z,92.32
2019-04-28T22:55:56.036Z,92.40
2019-04-28T22:58:41.864Z,92.44
2019-04-28T23:01:13.221Z,92.35
2019-04-28T23:03:44.689Z,92.29
2019-04-28T23:06:14.513Z,92.21
2019-04-28T23:08:44.263Z,92.31
2019-04-28T23:11:13.899Z,92.18
2019-04-28T23:13:43.552Z,92.10
2019-04-28T23:16:13.182Z,92.21
2019-04-28T23:18:42.936Z,92.37
2019-04-28T23:21:22.903Z,92.12
2019-04-28T23:23:52.629Z,92.01
2019-04-28T23:26:22.589Z,92.16
2019-04-28T23:28:52.260Z,92.21
2019-04-28T23:31:21.886Z,92.23
2019-04-28T23:33:51.800Z,92.18
2019-04-28T23:36:21.425Z,91.98
2019-04-28T23:38:51.079Z,92.09
2019-04-28T23:41:25.306Z,92.24
2019-04-28T23:43:54.956Z,92.17
2019-04-28T23:46:26.217Z,92.44
2019-04-28T23:48:55.882Z,92.84
2019-04-28T23:51:30.105Z,92.80
2019-04-28T23:54:08.735Z,93.17
2019-04-28T23:56:38.361Z,93.48
2019-04-28T23:59:08.010Z,93.63
